Time,TemperatureF,DewpointF,PressureIn,WindDirection,WindDirectionDegrees,WindSpeedMPH,WindSpeedGustMPH,Humidity,HourlyPrecipIn,Conditions,Clouds,dailyrainin,SoftwareType,DateUTC
2013-07-19 00:12:00,72.0,63.0,30.02,SW,235,0.0,-999.0,74,-99.99,,,0.00,weatherlink.com 1.10,2013-07-19 05:12:00,
2013-07-19 00:27:00,72.0,63.0,30.02,SW,232,0.0,-999.0,74,-99.99,,,0.00,weatherlink.com 1.10,2013-07-19 05:27:00,
2013-07-19 00:42:00,72.1,63.0,30.01,SW,225,0.0,-999.0,74,-99.99,,,0.00,weatherlink.com 1.10,2013-07-19 05:42:00,
2013-07-19 00:57:00,72.1,63.0,30.01,SW,223,0.0,-999.0,74,-99.99,,,0.00,weatherlink.com 1.10,2013-07-19 05:57:00,
2013-07-19 01:12:00,72.1,63.0,30.00,SW,222,0.0,-999.0,74,-99.99,,,0.00,weatherlink.com 1.10,2013-07-19 06:12:00,
2013-07-19 01:27:00,71.8,63.0,30.01,SW,221,0.0,-999.0,74,-99.99,,,0.00,weatherlink.com 1.10,2013-07-19 06:27:00,
2013-07-19 01:42:00,72.0,63.0,30.00,SW,220,0.0,-999.0,74,-99.99,,,0.00,weatherlink.com 1.10,2013-07-19 06:42:00,
2013-07-19 01:57:00,73.0,64.0,30.00,SW,215,0.0,-999.0,74,-99.99,,,0.00,weatherlink.com 1.10,2013-07-19 06:57:00,
2013-07-19 02:12:00,73.3,64.0,29.99,SSW,200,0.0,-999.0,73,-99.99,,,0.00,weatherlink.com 1.10,2013-07-19 07:12:00,
2013-07-19 02:27:00,73.6,65.0,29.99,SW,214,1.0,-999.0,74,-99.99,,,0.00,weatherlink.com 1.10,2013-07-19 07:27:00,
2013-07-19 02:42:00,73.6,64.0,29.99,SW,221,0.0,-999.0,73,-99.99,,,0.00,weatherlink.com 1.10,2013-07-19 07:42:00,
2013-07-19 02:57:00,73.8,65.0,29.99,SSW,213,0.0,-999.0,73,-99.99,,,0.00,weatherlink.com 1.10,2013-07-19 07:57:00,
2013-07-19 03:12:00,73.7,64.0,29.99,SW,223,2.0,-999.0,72,-99.99,,,0.00,weatherlink.com 1.10,2013-07-19 08:12:00,
2013-07-19 03:27:00,73.9,64.0,29.98,SW,218,0.0,-999.0,72,-99.99,,,0.00,weatherlink.com 1.10,2013-07-19 08:27:00,
2013-07-19 03:42:00,73.1,64.0,29.98,SW,234,3.0,-999.0,74,-99.99,,,0.00,weatherlink.com 1.10,2013-07-19 08:42:00,
2013-07-19 03:57:00,72.1,63.0,29.98,SW,236,3.0,-999.0,74,-99.99,,,0.00,weatherlink.com 1.10,2013-07-19 08:57:00,
2013-07-19 04:12:00,71.7,63.0,29.97,SW,236,3.0,-999.0,74,-99.99,,,0.00,weatherlink.com 1.10,2013-07-19 09:12:00,
2013-07-19 04:27:00,71.2,63.0,29.98,SW,229,6.0,-999.0,74,-99.99,,,0.00,weatherlink.com 1.10,2013-07-19 09:27:00,
2013-07-19 04:42:00,70.8,62.0,29.97,SW,216,1.0,-999.0,73,-99.99,,,0.00,weatherlink.com 1.10,2013-07-19 09:42:00,
2013-07-19 04:57:00,70.1,61.0,29.98,SW,236,4.0,-999.0,72,-99.99,,,0.00,weatherlink.com 1.10,2013-07-19 09:57:00,
2013-07-19 05:12:00,69.9,61.0,29.98,WSW,243,3.0,-999.0,73,-99.99,,,0.00,weatherlink.com 1.10,2013-07-19 10:12:00,
2013-07-19 05:27:00,70.0,61.0,29.98,WSW,241,0.0,-999.0,73,-99.99,,,0.00,weatherlink.com 1.10,2013-07-19 10:27:00,
2013-07-19 05:42:00,70.7,62.0,29.99,WSW,240,0.0,-999.0,74,-99.99,,,0.00,weatherlink.com 1.10,2013-07-19 10:42:00,
2013-07-19 05:57:00,71.5,63.0,29.99,WSW,241,0.0,-999.0,74,-99.99,,,0.00,weatherlink.com 1.10,2013-07-19 10:57:00,
2013-07-19 06:12:00,72.0,63.0,29.99,WSW,240,0.0,-999.0,74,-99.99,,,0.00,weatherlink.com 1.10,2013-07-19 11:12:00,
2013-07-19 06:27:00,71.8,63.0,29.99,WSW,241,0.0,-999.0,74,-99.99,,,0.00,weatherlink.com 1.10,2013-07-19 11:27:00,
2013-07-19 06:42:00,71.7,63.0,29.99,WSW,241,0.0,-999.0,74,-99.99,,,0.00,weatherlink.com 1.10,2013-07-19 11:42:00,
2013-07-19 06:57:00,71.8,63.0,30.00,WSW,241,0.0,-999.0,74,-99.99,,,0.00,weatherlink.com 1.10,2013-07-19 11:57:00,
2013-07-19 07:12:00,72.0,63.0,30.00,WSW,241,0.0,-999.0,74,-99.99,,,0.00,weatherlink.com 1.10,2013-07-19 12:12:00,
2013-07-19 07:27:00,73.3,65.0,30.00,WSW,241,0.0,-999.0,74,-99.99,,,0.00,weatherlink.com 1.10,2013-07-19 12:27:00,
2013-07-19 07:42:00,75.0,65.0,30.00,WSW,241,0.0,-999.0,72,-99.99,,,0.00,weatherlink.com 1.10,2013-07-19 12:42:00,
2013-07-19 07:57:00,75.8,66.0,30.00,WSW,241,0.0,-999.0,72,-99.99,,,0.00,weatherlink.com 1.10,2013-07-19 12:57:00,
2013-07-19 08:12:00,76.2,67.0,30.01,WSW,241,0.0,-999.0,74,-99.99,,,0.00,weatherlink.com 1.10,2013-07-19 13:12:00,
2013-07-19 08:27:00,77.2,67.0,30.00,WSW,241,0.0,-999.0,70,-99.99,,,0.00,weatherlink.com 1.10,2013-07-19 13:27:00,
2013-07-19 08:42:00,77.8,69.0,30.01,WSW,241,0.0,-999.0,73,-99.99,,,0.00,weatherlink.com 1.10,2013-07-19 13:42:00,
2013-07-19 08:57:00,77.3,68.0,30.00,WSW,242,0.0,-999.0,73,-99.99,,,0.00,weatherlink.com 1.10,2013-07-19 13:57:00,
2013-07-19 09:12:00,78.3,69.0,30.00,WSW,247,0.0,-999.0,72,-99.99,,,0.00,weatherlink.com 1.10,2013-07-19 14:12:00,
2013-07-19 09:27:00,78.2,68.0,30.01,West,263,0.0,-999.0,71,-99.99,,,0.00,weatherlink.com 1.10,2013-07-19 14:27:00,
2013-07-19 09:42:00,78.1,69.0,30.01,North,350,0.0,-999.0,73,-99.99,,,0.00,weatherlink.com 1.10,2013-07-19 14:42:00,
2013-07-19 09:57:00,77.5,68.0,30.01,North,351,0.0,-999.0,73,-99.99,,,0.00,weatherlink.com 1.10,2013-07-19 14:57:00,
2013-07-19 10:12:00,78.7,69.0,30.00,North,355,0.0,-999.0,73,-99.99,,,0.00,weatherlink.com 1.10,2013-07-19 15:12:00,
2013-07-19 10:27:00,79.8,70.0,30.00,North,355,0.0,-999.0,72,-99.99,,,0.00,weatherlink.com 1.10,2013-07-19 15:27:00,
2013-07-19 10:42:00,80.0,70.0,30.00,NNE,29,0.0,-999.0,72,-99.99,,,0.00,weatherlink.com 1.10,2013-07-19 15:42:00,
2013-07-19 10:57:00,79.3,70.0,30.00,NE,34,0.0,-999.0,72,-99.99,,,0.00,weatherlink.com 1.10,2013-07-19 15:57:00,
2013-07-19 11:12:00,81.1,71.0,30.00,NE,42,0.0,-999.0,71,-99.99,,,0.00,weatherlink.com 1.10,2013-07-19 16:12:00,
2013-07-19 11:27:00,80.7,71.0,30.00,NE,55,0.0,-999.0,72,-99.99,,,0.00,weatherlink.com 1.10,2013-07-19 16:27:00,
2013-07-19 11:42:00,81.5,71.0,30.00,ENE,57,0.0,-999.0,71,-99.99,,,0.00,weatherlink.com 1.10,2013-07-19 16:42:00,
2013-07-19 11:57:00,81.8,71.0,29.99,ENE,67,0.0,-999.0,70,-99.99,,,0.00,weatherlink.com 1.10,2013-07-19 16:57:00,
2013-07-19 12:12:00,82.5,71.0,29.99,ENE,67,0.0,-999.0,69,-99.99,,,0.00,weatherlink.com 1.10,2013-07-19 17:12:00,
2013-07-19 12:27:00,83.4,72.0,29.98,ENE,73,0.0,-999.0,68,-99.99,,,0.00,weatherlink.com 1.10,2013-07-19 17:27:00,
2013-07-19 12:42:00,84.3,72.0,29.97,ENE,71,0.0,-999.0,66,-99.99,,,0.00,weatherlink.com 1.10,2013-07-19 17:42:00,
2013-07-19 12:57:00,85.5,72.0,29.96,ENE,70,5.0,-999.0,65,-99.99,,,0.00,weatherlink.com 1.10,2013-07-19 17:57:00,
2013-07-19 13:12:00,84.3,70.0,29.95,ENE,74,0.0,-999.0,63,-99.99,,,0.00,weatherlink.com 1.10,2013-07-19 18:12:00,
2013-07-19 13:27:00,84.9,70.0,29.95,ENE,71,0.0,-999.0,62,-99.99,,,0.00,weatherlink.com 1.10,2013-07-19 18:27:00,
2013-07-19 13:42:00,85.2,71.0,29.94,ENE,77,0.0,-999.0,62,-99.99,,,0.00,weatherlink.com 1.10,2013-07-19 18:42:00,
2013-07-19 13:57:00,86.9,70.0,29.93,East,98,8.0,-999.0,58,-99.99,,,0.00,weatherlink.com 1.10,2013-07-19 18:57:00,
2013-07-19 14:12:00,86.3,71.0,29.93,East,79,0.0,-999.0,60,-99.99,,,0.00,weatherlink.com 1.10,2013-07-19 19:12:00,
2013-07-19 14:27:00,86.7,69.0,29.93,East,84,0.0,-999.0,56,-99.99,,,0.00,weatherlink.com 1.10,2013-07-19 19:27:00,
2013-07-19 14:42:00,87.1,69.0,29.92,East,86,0.0,-999.0,55,-99.99,,,0.00,weatherlink.com 1.10,2013-07-19 19:42:00,
2013-07-19 14:57:00,86.5,69.0,29.93,ENE,68,2.0,-999.0,57,-99.99,,,0.00,weatherlink.com 1.10,2013-07-19 19:57:00,
2013-07-19 15:12:00,81.6,68.0,29.92,WSW,246,0.0,-999.0,63,-99.99,,,0.00,weatherlink.com 1.10,2013-07-19 20:12:00,
2013-07-19 15:27:00,76.4,67.0,29.92,West,278,0.0,-999.0,73,-99.99,,,0.00,weatherlink.com 1.10,2013-07-19 20:27:00,
2013-07-19 15:42:00,75.0,66.0,29.91,West,265,0.0,-999.0,73,-99.99,,,0.00,weatherlink.com 1.10,2013-07-19 20:42:00,
2013-07-19 15:57:00,76.6,67.0,29.93,WNW,292,0.0,-999.0,71,-99.99,,,0.00,weatherlink.com 1.10,2013-07-19 20:57:00,
2013-07-19 16:12:00,74.1,65.0,29.93,NW,309,0.0,-999.0,73,-99.99,,,0.00,weatherlink.com 1.10,2013-07-19 21:12:00,
2013-07-19 16:27:00,72.5,63.0,29.93,NNE,20,2.0,-999.0,72,-99.99,,,0.00,weatherlink.com 1.10,2013-07-19 21:27:00,
2013-07-19 16:42:00,71.7,63.0,29.93,NE,40,0.0,-999.0,73,-99.99,,,0.00,weatherlink.com 1.10,2013-07-19 21:42:00,
2013-07-19 16:57:00,71.3,61.0,29.92,NNW,335,0.0,-999.0,71,-99.99,,,0.00,weatherlink.com 1.10,2013-07-19 21:57:00,
2013-07-19 17:12:00,71.1,61.0,29.92,NW,313,0.0,-999.0,71,-99.99,,,0.00,weatherlink.com 1.10,2013-07-19 22:12:00,
2013-07-19 17:27:00,72.2,63.0,29.93,NW,313,0.0,-999.0,73,-99.99,,,0.00,weatherlink.com 1.10,2013-07-19 22:27:00,
2013-07-19 17:42:00,72.0,62.0,29.93,NW,313,0.0,-999.0,71,-99.99,,,0.00,weatherlink.com 1.10,2013-07-19 22:42:00,
2013-07-19 17:57:00,71.8,62.0,29.93,NW,312,0.0,-999.0,71,-99.99,,,0.00,weatherlink.com 1.10,2013-07-19 22:57:00,
2013-07-19 18:12:00,71.4,61.0,29.94,West,281,0.0,-999.0,70,-99.99,,,0.00,weatherlink.com 1.10,2013-07-19 23:12:00,
2013-07-19 18:27:00,71.2,61.0,29.94,WSW,242,4.0,-999.0,69,-99.99,,,0.00,weatherlink.com 1.10,2013-07-19 23:27:00,
2013-07-19 18:42:00,70.8,60.0,29.94,WSW,242,5.0,-999.0,69,-99.99,,,0.00,weatherlink.com 1.10,2013-07-19 23:42:00,
2013-07-19 18:57:00,70.6,60.0,29.95,WSW,237,2.0,-999.0,70,-99.99,,,0.00,weatherlink.com 1.10,2013-07-19 23:57:00,
2013-07-19 19:12:00,70.6,61.0,29.95,WSW,243,2.0,-999.0,71,-99.99,,,0.00,weatherlink.com 1.10,2013-07-20 00:12:00,
2013-07-19 19:27:00,70.9,61.0,29.94,WSW,240,0.0,-999.0,72,-99.99,,,0.00,weatherlink.com 1.10,2013-07-20 00:27:00,
2013-07-19 19:42:00,71.1,62.0,29.93,WSW,239,6.0,-999.0,72,-99.99,,,0.00,weatherlink.com 1.10,2013-07-20 00:42:00,
2013-07-19 19:57:00,71.0,62.0,29.93,WSW,240,6.0,-999.0,72,-99.99,,,0.00,weatherlink.com 1.10,2013-07-20 00:57:00,
2013-07-19 20:12:00,71.4,62.0,29.94,WSW,239,0.0,-999.0,73,-99.99,,,0.00,weatherlink.com 1.10,2013-07-20 01:12:00,
2013-07-19 20:27:00,71.6,62.0,29.94,WSW,239,5.0,-999.0,72,-99.99,,,0.00,weatherlink.com 1.10,2013-07-20 01:27:00,
2013-07-19 20:42:00,70.9,61.0,29.93,WSW,242,8.0,-999.0,71,-99.99,,,0.00,weatherlink.com 1.10,2013-07-20 01:42:00,
2013-07-19 20:57:00,70.7,61.0,29.93,WSW,242,5.0,-999.0,71,-99.99,,,0.00,weatherlink.com 1.10,2013-07-20 01:57:00,
2013-07-19 21:12:00,71.1,62.0,29.93,WSW,240,3.0,-999.0,73,-99.99,,,0.00,weatherlink.com 1.10,2013-07-20 02:12:00,
2013-07-19 21:27:00,71.9,63.0,29.94,WSW,241,0.0,-999.0,73,-99.99,,,0.00,weatherlink.com 1.10,2013-07-20 02:27:00,
2013-07-19 21:42:00,72.5,64.0,29.94,WSW,241,0.0,-999.0,74,-99.99,,,0.00,weatherlink.com 1.10,2013-07-20 02:42:00,
2013-07-19 21:57:00,73.2,64.0,29.94,WSW,241,0.0,-999.0,74,-99.99,,,0.00,weatherlink.com 1.10,2013-07-20 02:57:00,
2013-07-19 22:12:00,73.1,64.0,29.93,WSW,241,0.0,-999.0,74,-99.99,,,0.00,weatherlink.com 1.10,2013-07-20 03:12:00,
2013-07-19 22:27:00,72.6,64.0,29.93,WSW,241,0.0,-999.0,74,-99.99,,,0.00,weatherlink.com 1.10,2013-07-20 03:27:00,
2013-07-19 22:42:00,71.9,63.0,29.92,WSW,241,2.0,-999.0,73,-99.99,,,0.00,weatherlink.com 1.10,2013-07-20 03:42:00,
2013-07-19 22:57:00,71.9,62.0,29.92,WSW,242,0.0,-999.0,72,-99.99,,,0.00,weatherlink.com 1.10,2013-07-20 03:57:00,
2013-07-19 23:12:00,71.6,63.0,29.93,WSW,242,0.0,-999.0,73,-99.99,,,0.00,weatherlink.com 1.10,2013-07-20 04:12:00,
2013-07-19 23:27:00,71.2,62.0,29.93,WSW,242,0.0,-999.0,73,-99.99,,,0.00,weatherlink.com 1.10,2013-07-20 04:27:00,
2013-07-19 23:42:00,71.0,62.0,29.93,WSW,242,3.0,-999.0,72,-99.99,,,0.00,weatherlink.com 1.10,2013-07-20 04:42:00,
2013-07-19 23:57:00,70.6,61.0,29.93,WSW,242,1.0,-999.0,71,-99.99,,,0.00,weatherlink.com 1.10,2013-07-20 04:57:00,